createdAt,value
2017-09-18T00:02:24.725Z,100801.60
2017-09-18T00:04:52.327Z,100805.20
2017-09-18T00:07:19.964Z,100796.94
2017-09-18T00:09:47.552Z,100799.34
2017-09-18T00:12:15.166Z,100805.91
2017-09-18T00:14:42.789Z,100812.47
2017-09-18T00:17:10.421Z,100812.75
2017-09-18T00:19:38.058Z,100812.12
2017-09-18T00:22:05.639Z,100814.59
2017-09-18T00:24:33.236Z,100814.31
2017-09-18T00:27:01.092Z,100816.41
2017-09-18T00:29:28.687Z,100819.83
2017-09-18T00:31:56.327Z,100824.47
2017-09-18T00:34:23.923Z,100818.19
2017-09-18T00:36:51.503Z,100811.49
2017-09-18T00:39:19.139Z,100808.05
2017-09-18T00:41:46.720Z,100816.09
2017-09-18T00:44:14.371Z,100819.20
2017-09-18T00:46:41.943Z,100815.80
2017-09-18T00:49:09.543Z,100822.48
2017-09-18T00:51:37.215Z,100825.33
2017-09-18T00:54:04.803Z,100821.17
2017-09-18T00:56:33.472Z,100828.99
2017-09-18T00:59:01.066Z,100826.59
2017-09-18T01:01:28.923Z,100829.61
2017-09-18T01:03:56.540Z,100827.16
2017-09-18T01:06:24.415Z,100833.13
2017-09-18T01:08:52.038Z,100829.69
2017-09-18T01:11:19.635Z,100826.98
2017-09-18T01:13:47.234Z,100828.59
2017-09-18T01:16:14.985Z,100828.98
2017-09-18T01:18:42.943Z,100826.70
2017-09-18T01:21:10.581Z,100829.86
2017-09-18T01:23:38.174Z,100830.64
2017-09-18T01:26:05.770Z,100822.77
2017-09-18T01:28:33.397Z,100828.77
2017-09-18T01:31:00.992Z,100817.73
2017-09-18T01:33:28.615Z,100818.48
2017-09-18T01:35:56.278Z,100819.08
2017-09-18T01:38:24.144Z,100819.17
2017-09-18T01:40:51.815Z,100820.08
2017-09-18T01:43:19.407Z,100822.99
2017-09-18T01:45:47.135Z,100819.06
2017-09-18T01:48:14.724Z,100821.61
2017-09-18T01:50:42.324Z,100824.52
2017-09-18T01:53:09.948Z,100825.12
2017-09-18T01:55:37.534Z,100829.48
2017-09-18T01:58:05.229Z,100824.31
2017-09-18T02:00:33.107Z,100822.96
2017-09-18T02:03:00.759Z,100826.19
2017-09-18T02:05:28.372Z,100820.75
2017-09-18T02:07:56.252Z,100811.79
2017-09-18T02:10:23.880Z,100811.05
2017-09-18T02:12:51.490Z,100816.30
2017-09-18T02:15:19.092Z,100815.84
2017-09-18T02:17:46.783Z,100810.65
2017-09-18T02:20:14.386Z,100805.70
2017-09-18T02:22:42.028Z,100810.73
2017-09-18T02:25:09.608Z,100810.09
2017-09-18T02:27:37.214Z,100813.88
2017-09-18T02:30:04.866Z,100815.52
2017-09-18T02:32:32.486Z,100809.20
2017-09-18T02:35:00.163Z,100819.08
2017-09-18T02:37:27.768Z,100819.34
2017-09-18T02:39:55.372Z,100823.94
2017-09-18T02:42:22.988Z,100819.92
2017-09-18T02:44:50.588Z,100811.13
2017-09-18T02:47:18.401Z,100815.28
2017-09-18T02:49:46.033Z,100805.50
2017-09-18T02:52:13.936Z,100808.41
2017-09-18T02:54:41.519Z,100806.13
2017-09-18T02:57:09.149Z,100805.33
2017-09-18T02:59:36.759Z,100803.77
2017-09-18T03:02:04.411Z,100800.58
2017-09-18T03:04:32.043Z,100803.98
2017-09-18T03:06:59.629Z,100802.08
2017-09-18T03:09:27.392Z,100804.43
2017-09-18T03:11:55.016Z,100803.60
2017-09-18T03:14:22.600Z,100801.94
2017-09-18T03:16:50.181Z,100801.73
2017-09-18T03:19:17.838Z,100803.67
2017-09-18T03:21:45.449Z,100806.34
2017-09-18T03:24:13.083Z,100807.17
2017-09-18T03:26:40.686Z,100813.37
2017-09-18T03:29:08.260Z,100809.55
2017-09-18T03:31:35.867Z,100812.27
2017-09-18T03:34:03.463Z,100814.53
2017-09-18T03:36:31.093Z,100821.78
2017-09-18T03:38:58.718Z,100818.21
2017-09-18T03:41:26.314Z,100826.65
2017-09-18T03:43:54.137Z,100822.84
2017-09-18T03:46:21.743Z,100827.21
2017-09-18T03:48:49.364Z,100830.95
2017-09-18T03:51:16.952Z,100830.66
2017-09-18T03:53:44.546Z,100833.63
2017-09-18T03:56:12.164Z,100837.30
2017-09-18T03:58:39.761Z,100832.36
2017-09-18T04:01:07.387Z,100834.27
2017-09-18T04:03:35.016Z,100829.43
2017-09-18T04:06:02.613Z,100834.42
2017-09-18T04:08:30.230Z,100832.36
2017-09-18T04:10:57.824Z,100830.25
2017-09-18T04:13:25.492Z,100832.77
2017-09-18T04:15:53.109Z,100835.59
2017-09-18T04:18:20.927Z,100831.02
2017-09-18T04:20:48.573Z,100840.20
2017-09-18T04:23:16.162Z,100836.42
2017-09-18T04:25:43.804Z,100841.58
2017-09-18T04:28:11.416Z,100840.81
2017-09-18T04:30:39.013Z,100848.95
2017-09-18T04:33:06.894Z,100843.94
2017-09-18T04:35:34.723Z,100849.11
2017-09-18T04:38:02.348Z,100845.75
2017-09-18T04:40:30.294Z,100851.63
2017-09-18T04:42:57.900Z,100857.95
2017-09-18T04:45:25.621Z,100868.47
2017-09-18T04:47:53.223Z,100865.19
2017-09-18T04:50:20.864Z,100871.61
2017-09-18T04:52:48.459Z,100878.88
2017-09-18T04:55:16.070Z,100873.19
2017-09-18T04:57:43.735Z,100877.19
2017-09-18T05:00:11.324Z,100882.16
2017-09-18T05:02:38.959Z,100879.21
2017-09-18T05:05:06.548Z,100882.97
2017-09-18T05:07:34.119Z,100886.55
2017-09-18T05:10:01.737Z,100887.17
2017-09-18T05:12:29.330Z,100886.08
2017-09-18T05:14:56.976Z,100891.04
2017-09-18T05:17:24.561Z,100887.77
2017-09-18T05:19:52.156Z,100887.64
2017-09-18T05:22:19.779Z,100895.84
2017-09-18T05:24:47.361Z,100888.65
2017-09-18T05:27:15.000Z,100888.44
2017-09-18T05:29:42.598Z,100888.75
2017-09-18T05:32:10.199Z,100885.70
2017-09-18T05:34:37.816Z,100887.21
2017-09-18T05:37:05.452Z,100894.02
2017-09-18T05:39:33.086Z,100894.13
2017-09-18T05:42:00.681Z,100896.55
2017-09-18T05:44:28.268Z,100899.66
2017-09-18T05:46:55.884Z,100895.89
2017-09-18T05:49:23.470Z,100903.05
2017-09-18T05:51:51.090Z,100906.82
2017-09-18T05:54:18.685Z,100907.08
2017-09-18T05:56:46.260Z,100901.65
2017-09-18T05:59:14.186Z,100901.63
2017-09-18T06:01:42.565Z,100899.48
2017-09-18T06:04:10.228Z,100900.69
2017-09-18T06:06:37.891Z,100902.62
2017-09-18T06:09:05.501Z,100900.69
2017-09-18T06:11:33.123Z,100909.56
2017-09-18T06:14:00.732Z,100911.00
2017-09-18T06:16:28.360Z,100916.21
2017-09-18T06:18:56.213Z,100911.44
2017-09-18T06:21:23.789Z,100908.87
2017-09-18T06:23:53.870Z,100912.56
2017-09-18T06:26:21.455Z,100913.98
2017-09-18T06:28:49.095Z,100916.54
2017-09-18T06:31:16.689Z,100914.46
2017-09-18T06:33:44.300Z,100912.48
2017-09-18T06:36:11.912Z,100909.50
2017-09-18T06:38:39.507Z,100912.86
2017-09-18T06:41:07.131Z,100912.19
2017-09-18T06:43:34.716Z,100912.37
2017-09-18T06:46:02.315Z,100913.52
2017-09-18T06:48:29.934Z,100914.88
2017-09-18T06:50:57.778Z,100922.32
2017-09-18T06:53:25.735Z,100918.55
2017-09-18T06:55:53.335Z,100923.81
2017-09-18T06:58:20.956Z,100927.75
2017-09-18T07:00:48.560Z,100917.64
2017-09-18T07:03:16.146Z,100928.28
2017-09-18T07:05:43.774Z,100927.45
2017-09-18T07:08:11.361Z,100926.99
2017-09-18T07:10:38.934Z,100934.66
2017-09-18T07:13:06.836Z,100934.55
2017-09-18T07:15:34.414Z,100940.38
2017-09-18T07:18:02.465Z,100945.70
2017-09-18T07:20:30.220Z,100951.93
2017-09-18T07:22:57.796Z,100951.23
2017-09-18T07:25:25.412Z,100948.70
2017-09-18T07:27:54.075Z,100953.20
2017-09-18T07:30:22.660Z,100952.69
2017-09-18T07:32:50.256Z,100950.64
2017-09-18T07:35:17.836Z,100957.70
2017-09-18T07:37:45.445Z,100957.38
2017-09-18T07:40:13.039Z,100962.91
2017-09-18T07:42:40.669Z,100964.69
2017-09-18T07:45:08.321Z,100966.80
2017-09-18T07:47:35.898Z,100966.30
2017-09-18T07:50:03.837Z,100974.94
2017-09-18T07:52:31.439Z,100978.12
2017-09-18T07:54:59.064Z,100981.07
2017-09-18T07:57:26.649Z,100974.55
2017-09-18T07:59:54.235Z,100978.63
2017-09-18T08:02:21.863Z,100978.50
2017-09-18T08:04:49.707Z,100977.23
2017-09-18T08:07:17.388Z,100979.42
2017-09-18T08:09:44.973Z,100978.52
2017-09-18T08:12:12.582Z,100979.51
2017-09-18T08:14:40.240Z,100976.86
2017-09-18T08:17:07.864Z,100979.77
2017-09-18T08:19:35.475Z,100984.17
2017-09-18T08:22:03.347Z,100977.61
2017-09-18T08:24:31.166Z,100978.16
2017-09-18T08:26:58.767Z,100983.27
2017-09-18T08:29:26.370Z,100981.29
2017-09-18T08:31:54.235Z,100973.13
2017-09-18T08:34:21.834Z,100971.86
2017-09-18T08:36:49.459Z,100980.72
2017-09-18T08:39:17.067Z,100984.52
2017-09-18T08:41:44.656Z,100986.63
2017-09-18T08:44:12.281Z,100981.83
2017-09-18T08:46:39.867Z,100976.52
2017-09-18T08:49:07.462Z,100976.42
2017-09-18T08:51:35.095Z,100973.72
2017-09-18T08:54:02.686Z,100971.19
2017-09-18T08:56:30.736Z,100966.03
2017-09-18T08:58:58.310Z,100969.14
2017-09-18T09:01:25.898Z,100968.22
2017-09-18T09:03:53.507Z,100968.66
2017-09-18T09:06:21.112Z,100971.33
2017-09-18T09:08:48.752Z,100978.06
2017-09-18T09:11:16.633Z,100982.99
2017-09-18T09:13:44.248Z,100974.91
2017-09-18T09:16:11.869Z,100975.22
2017-09-18T09:18:39.484Z,100978.92
2017-09-18T09:21:07.115Z,100975.99
2017-09-18T09:23:35.029Z,100984.10
2017-09-18T09:26:02.601Z,100978.58
2017-09-18T09:28:30.231Z,100982.73
2017-09-18T09:30:57.820Z,100984.67
2017-09-18T09:33:25.443Z,100982.99
2017-09-18T09:35:53.027Z,100991.47
2017-09-18T09:38:20.611Z,100990.48
2017-09-18T09:40:48.466Z,100991.59
2017-09-18T09:43:16.062Z,100987.59
2017-09-18T09:45:44.371Z,100981.26
2017-09-18T09:48:11.952Z,100984.69
2017-09-18T09:50:39.544Z,100984.48
2017-09-18T09:53:07.499Z,100988.64
2017-09-18T09:55:35.090Z,100992.34
2017-09-18T09:58:02.725Z,100992.63
2017-09-18T10:00:30.302Z,100991.52
2017-09-18T10:02:58.150Z,100996.38
2017-09-18T10:05:25.771Z,100989.87
2017-09-18T10:07:53.447Z,100988.48
2017-09-18T10:10:21.052Z,100982.80
2017-09-18T10:12:48.682Z,100994.56
2017-09-18T10:15:16.262Z,100993.95
2017-09-18T10:17:43.850Z,100984.73
2017-09-18T10:20:11.466Z,100989.92
2017-09-18T10:22:39.347Z,100991.12
2017-09-18T10:25:06.936Z,100992.34
2017-09-18T10:27:34.539Z,100993.02
2017-09-18T10:30:02.339Z,100997.12
2017-09-18T10:32:30.060Z,100997.45
2017-09-18T10:34:57.972Z,100995.77
2017-09-18T10:37:25.556Z,101000.13
2017-09-18T10:39:53.172Z,100990.66
2017-09-18T10:42:20.758Z,100998.11
2017-09-18T10:44:48.376Z,101004.27
2017-09-18T10:47:15.960Z,101002.39
2017-09-18T10:49:43.542Z,101004.00
2017-09-18T10:52:11.152Z,101004.95
2017-09-18T10:54:38.768Z,101007.20
2017-09-18T10:57:06.400Z,101012.08
2017-09-18T10:59:34.030Z,101005.38
2017-09-18T11:02:01.958Z,101013.17
2017-09-18T11:04:29.587Z,101015.12
2017-09-18T11:06:57.175Z,101014.50
2017-09-18T11:09:24.827Z,101015.44
2017-09-18T11:11:52.420Z,101011.77
2017-09-18T11:14:20.017Z,101000.95
2017-09-18T11:16:47.625Z,101001.47
2017-09-18T11:19:15.509Z,101003.53
2017-09-18T11:21:43.120Z,101000.91
2017-09-18T11:24:10.749Z,100999.87
2017-09-18T11:26:38.336Z,100993.66
2017-09-18T11:29:05.969Z,100999.67
2017-09-18T11:31:33.554Z,100998.59
2017-09-18T11:34:01.168Z,100996.82
2017-09-18T11:36:29.039Z,100989.09
2017-09-18T11:38:56.624Z,100990.34
2017-09-18T11:41:24.238Z,100980.56
2017-09-18T11:43:51.834Z,100981.89
2017-09-18T11:46:19.471Z,100976.88
2017-09-18T11:48:47.056Z,100985.61
2017-09-18T11:51:14.628Z,100989.27
2017-09-18T11:53:42.232Z,100997.45
2017-09-18T11:56:09.836Z,100992.92
2017-09-18T11:58:37.457Z,100994.61
2017-09-18T12:01:05.057Z,100985.13
2017-09-18T12:03:32.923Z,100995.53
2017-09-18T12:06:00.540Z,100993.80
2017-09-18T12:08:28.114Z,100991.61
2017-09-18T12:10:55.737Z,100987.91
2017-09-18T12:13:23.344Z,100992.86
2017-09-18T12:15:51.041Z,100988.72
2017-09-18T12:18:18.663Z,100974.76
2017-09-18T12:20:46.258Z,100979.72
2017-09-18T12:23:13.883Z,100978.09
2017-09-18T12:25:41.465Z,100975.41
2017-09-18T12:28:09.048Z,100977.30
2017-09-18T12:30:36.657Z,100978.16
2017-09-18T12:33:04.251Z,100973.85
2017-09-18T12:35:31.883Z,100978.14
2017-09-18T12:37:59.464Z,100984.02
2017-09-18T12:40:27.045Z,100980.31
2017-09-18T12:42:54.664Z,100979.69
2017-09-18T12:45:22.250Z,100981.79
2017-09-18T12:47:49.911Z,100985.19
2017-09-18T12:50:17.564Z,100987.55
2017-09-18T12:52:45.146Z,100978.66
2017-09-18T12:55:12.769Z,100977.45
2017-09-18T12:57:40.355Z,100988.05
2017-09-18T13:00:07.988Z,100990.14
2017-09-18T13:02:35.604Z,100984.21
2017-09-18T13:05:03.207Z,100988.81
2017-09-18T13:07:30.824Z,100995.93
2017-09-18T13:09:58.419Z,100993.52
2017-09-18T13:12:26.060Z,100986.78
2017-09-18T13:14:53.683Z,100988.28
2017-09-18T13:17:21.289Z,100990.14
2017-09-18T13:19:49.255Z,100983.55
2017-09-18T13:22:17.162Z,100988.49
2017-09-18T13:24:45.120Z,100988.98
2017-09-18T13:27:12.735Z,100991.60
2017-09-18T13:29:40.429Z,100992.40
2017-09-18T13:32:08.045Z,100988.26
2017-09-18T13:34:35.793Z,100983.91
2017-09-18T13:37:03.679Z,100988.34
2017-09-18T13:39:32.670Z,100988.17
2017-09-18T13:42:00.302Z,100987.95
2017-09-18T13:44:27.968Z,100983.77
2017-09-18T13:46:55.543Z,100985.56
2017-09-18T13:49:23.155Z,100992.33
2017-09-18T13:51:50.744Z,100989.51
2017-09-18T13:54:18.352Z,100994.00
2017-09-18T13:56:46.032Z,101005.59
2017-09-18T13:59:13.608Z,100996.83
2017-09-18T14:01:41.375Z,100995.08
2017-09-18T14:04:09.782Z,100993.20
2017-09-18T14:06:37.361Z,100990.78
2017-09-18T14:09:04.990Z,100998.30
2017-09-18T14:11:32.617Z,100995.06
2017-09-18T14:14:00.271Z,100986.08
2017-09-18T14:16:27.856Z,100988.74
2017-09-18T14:18:55.452Z,100993.48
2017-09-18T14:21:23.095Z,100981.14
2017-09-18T14:23:50.689Z,100989.83
2017-09-18T14:26:18.310Z,100979.08
2017-09-18T14:28:45.889Z,100977.69
2017-09-18T14:31:13.459Z,100986.84
2017-09-18T14:33:41.068Z,100991.11
2017-09-18T14:36:08.867Z,100988.20
2017-09-18T14:38:36.724Z,100987.80
2017-09-18T14:41:04.296Z,100990.87
2017-09-18T14:43:31.993Z,100992.42
2017-09-18T14:45:59.636Z,100991.05
2017-09-18T14:48:27.232Z,100995.14
2017-09-18T14:50:54.856Z,100991.73
2017-09-18T14:53:22.505Z,100989.71
2017-09-18T14:55:50.104Z,100985.09
2017-09-18T14:58:17.795Z,100989.80
2017-09-18T15:00:45.403Z,100986.06
2017-09-18T15:03:13.054Z,100985.67
2017-09-18T15:05:40.676Z,100988.94
2017-09-18T15:08:08.374Z,100987.07
2017-09-18T15:10:36.008Z,100982.92
2017-09-18T15:13:03.608Z,100983.29
2017-09-18T15:15:31.343Z,100983.14
2017-09-18T15:17:59.048Z,100981.44
2017-09-18T15:20:27.008Z,100976.14
2017-09-18T15:22:54.651Z,100981.33
2017-09-18T15:25:22.263Z,100980.96
2017-09-18T15:27:50.104Z,100978.46
2017-09-18T15:30:17.735Z,100980.69
2017-09-18T15:32:45.619Z,100982.61
2017-09-18T15:35:13.263Z,100982.71
2017-09-18T15:37:40.884Z,100977.38
2017-09-18T15:40:08.597Z,100982.98
2017-09-18T15:42:36.227Z,100986.88
2017-09-18T15:45:04.146Z,100983.90
2017-09-18T15:47:31.787Z,100982.80
2017-09-18T15:49:59.384Z,100983.53
2017-09-18T15:52:27.043Z,100982.43
2017-09-18T15:54:54.647Z,100982.08
2017-09-18T15:57:22.230Z,100983.89
2017-09-18T15:59:49.909Z,100981.44
2017-09-18T16:02:17.501Z,100982.59
2017-09-18T16:04:45.150Z,100980.81
2017-09-18T16:07:12.757Z,100984.34
2017-09-18T16:09:40.668Z,100981.44
2017-09-18T16:12:08.331Z,100990.05
2017-09-18T16:14:36.116Z,100987.08
2017-09-18T16:17:03.751Z,100981.90
2017-09-18T16:19:31.325Z,100987.33
2017-09-18T16:21:58.901Z,100981.80
2017-09-18T16:24:26.517Z,100992.41
2017-09-18T16:26:54.107Z,100989.23
2017-09-18T16:29:21.766Z,100992.06
2017-09-18T16:31:49.647Z,100993.10
2017-09-18T16:34:17.506Z,100993.83
2017-09-18T16:36:45.194Z,100990.98
2017-09-18T16:39:12.801Z,100990.16
2017-09-18T16:41:40.432Z,100993.47
2017-09-18T16:44:08.029Z,100994.51
2017-09-18T16:46:35.727Z,100992.33
2017-09-18T16:49:03.349Z,100996.48
2017-09-18T16:51:30.944Z,101000.96
2017-09-18T16:53:58.574Z,101001.99
2017-09-18T16:56:26.165Z,100999.95
2017-09-18T16:58:53.752Z,101003.29
2017-09-18T17:01:21.405Z,101002.66
2017-09-18T17:03:49.262Z,101005.55
2017-09-18T17:06:16.947Z,101005.95
2017-09-18T17:08:44.562Z,101008.78
2017-09-18T17:11:12.147Z,101008.08
2017-09-18T17:13:39.728Z,101012.11
2017-09-18T17:16:07.362Z,101011.81
2017-09-18T17:18:35.250Z,101014.70
2017-09-18T17:21:02.849Z,101020.72
2017-09-18T17:23:30.868Z,101022.29
2017-09-18T17:25:58.488Z,101026.00
2017-09-18T17:28:26.135Z,101030.16
2017-09-18T17:30:53.726Z,101030.66
2017-09-18T17:33:21.612Z,101034.62
2017-09-18T17:35:49.287Z,101037.81
2017-09-18T17:38:16.939Z,101039.27
2017-09-18T17:40:44.611Z,101047.33
2017-09-18T17:43:12.226Z,101044.75
2017-09-18T17:45:39.813Z,101049.09
2017-09-18T17:48:07.436Z,101053.52
2017-09-18T17:50:35.732Z,101060.67
2017-09-18T17:53:03.638Z,101066.77
2017-09-18T17:55:31.234Z,101062.71
2017-09-18T17:57:58.839Z,101070.06
2017-09-18T18:00:26.535Z,101063.95
2017-09-18T18:02:54.183Z,101066.65
2017-09-18T18:05:21.821Z,101071.08
2017-09-18T18:07:49.441Z,101071.17
2017-09-18T18:10:17.026Z,101077.91
2017-09-18T18:12:44.656Z,101078.11
2017-09-18T18:15:12.263Z,101077.27
2017-09-18T18:17:39.958Z,101072.98
2017-09-18T18:20:07.563Z,101077.53
2017-09-18T18:22:35.494Z,101070.98
2017-09-18T18:25:03.115Z,101070.76
2017-09-18T18:27:30.752Z,101076.05
2017-09-18T18:29:58.693Z,101073.42
2017-09-18T18:32:26.304Z,101071.77
2017-09-18T18:34:53.920Z,101071.03
2017-09-18T18:37:21.550Z,101073.30
2017-09-18T18:39:49.171Z,101075.27
2017-09-18T18:42:17.435Z,101084.77
2017-09-18T18:44:45.090Z,101082.41
2017-09-18T18:47:12.719Z,101087.65
2017-09-18T18:49:40.346Z,101096.13
2017-09-18T18:52:07.947Z,101092.70
2017-09-18T18:54:35.630Z,101094.25
2017-09-18T18:57:03.230Z,101094.86
2017-09-18T18:59:30.949Z,101095.56
2017-09-18T19:01:58.650Z,101095.98
2017-09-18T19:04:26.265Z,101099.05
2017-09-18T19:06:53.896Z,101103.66
2017-09-18T19:09:21.646Z,101100.04
2017-09-18T19:11:49.578Z,101098.12
2017-09-18T19:14:17.222Z,101098.21
2017-09-18T19:16:44.808Z,101100.61
2017-09-18T19:19:12.431Z,101106.27
2017-09-18T19:21:40.024Z,101102.47
2017-09-18T19:24:07.626Z,101105.86
2017-09-18T19:26:35.271Z,101103.27
2017-09-18T19:29:02.931Z,101118.69
2017-09-18T19:31:30.590Z,101114.05
2017-09-18T19:33:58.193Z,101113.62
2017-09-18T19:36:25.794Z,101113.12
2017-09-18T19:38:53.404Z,101112.80
2017-09-18T19:41:21.017Z,101112.53
2017-09-18T19:43:48.644Z,101111.92
2017-09-18T19:46:16.235Z,101107.48
2017-09-18T19:48:43.844Z,101107.99
2017-09-18T19:51:11.462Z,101105.88
2017-09-18T19:53:39.048Z,101109.20
2017-09-18T19:56:06.673Z,101106.92
2017-09-18T19:58:34.265Z,101102.45
2017-09-18T20:01:02.086Z,101111.20
2017-09-18T20:03:29.695Z,101112.64
2017-09-18T20:05:57.543Z,101110.14
2017-09-18T20:08:25.168Z,101112.41
2017-09-18T20:10:52.808Z,101113.33
2017-09-18T20:13:20.386Z,101115.60
2017-09-18T20:15:48.308Z,101115.09
2017-09-18T20:18:16.065Z,101115.78
2017-09-18T20:20:43.716Z,101119.91
2017-09-18T20:23:11.317Z,101116.35
2017-09-18T20:25:39.156Z,101114.17
2017-09-18T20:28:07.037Z,101114.40
2017-09-18T20:30:35.435Z,101113.56
2017-09-18T20:33:03.279Z,101111.67
2017-09-18T20:35:30.860Z,101109.58
2017-09-18T20:37:58.525Z,101117.78
2017-09-18T20:40:26.155Z,101115.37
2017-09-18T20:42:53.758Z,101117.84
2017-09-18T20:45:21.380Z,101113.39
2017-09-18T20:47:48.974Z,101111.81
2017-09-18T20:50:16.812Z,101118.30
2017-09-18T20:52:44.487Z,101118.38
2017-09-18T20:55:12.071Z,101117.16
2017-09-18T20:57:39.687Z,101114.70
2017-09-18T21:00:07.280Z,101117.30
2017-09-18T21:02:35.234Z,101117.20
2017-09-18T21:05:02.849Z,101119.45
2017-09-18T21:07:30.761Z,101117.84
2017-09-18T21:09:58.402Z,101113.42
2017-09-18T21:12:26.008Z,101121.87
2017-09-18T21:14:53.646Z,101125.80
2017-09-18T21:17:21.352Z,101120.73
2017-09-18T21:19:49.027Z,101123.12
2017-09-18T21:22:16.945Z,101124.97
2017-09-18T21:24:44.558Z,101125.20
2017-09-18T21:27:12.665Z,101124.20
2017-09-18T21:29:40.306Z,101130.08
2017-09-18T21:32:08.224Z,101133.52
2017-09-18T21:34:36.011Z,101125.78
2017-09-18T21:37:03.630Z,101129.63
2017-09-18T21:39:31.276Z,101121.20
2017-09-18T21:41:58.942Z,101128.97
2017-09-18T21:44:26.546Z,101126.43
2017-09-18T21:46:54.182Z,101129.53
2017-09-18T21:49:22.066Z,101130.66
2017-09-18T21:51:49.663Z,101126.13
2017-09-18T21:54:17.286Z,101124.09
2017-09-18T21:56:44.876Z,101124.75
2017-09-18T21:59:12.495Z,101124.70
2017-09-18T22:01:40.092Z,101126.98
2017-09-18T22:04:07.932Z,101128.99
2017-09-18T22:06:35.560Z,101132.36
2017-09-18T22:09:03.135Z,101128.76
2017-09-18T22:11:30.781Z,101128.91
2017-09-18T22:13:58.506Z,101134.17
2017-09-18T22:16:26.359Z,101131.79
2017-09-18T22:18:53.985Z,101129.80
2017-09-18T22:21:21.564Z,101123.28
2017-09-18T22:23:49.558Z,101121.08
2017-09-18T22:26:17.174Z,101126.31
2017-09-18T22:28:44.755Z,101123.43
2017-09-18T22:31:12.641Z,101128.28
2017-09-18T22:33:40.308Z,101125.90
2017-09-18T22:36:08.272Z,101126.55
2017-09-18T22:38:36.145Z,101127.03
2017-09-18T22:41:03.738Z,101118.70
2017-09-18T22:43:31.352Z,101119.02
2017-09-18T22:45:58.930Z,101120.27
2017-09-18T22:48:26.560Z,101117.51
2017-09-18T22:50:54.155Z,101117.66
2017-09-18T22:53:21.740Z,101112.30
2017-09-18T22:55:49.375Z,101111.73
2017-09-18T22:58:16.953Z,101110.22
2017-09-18T23:00:44.907Z,101112.56
2017-09-18T23:03:12.508Z,101110.57
2017-09-18T23:05:40.088Z,101115.01
2017-09-18T23:08:07.705Z,101116.14
2017-09-18T23:10:35.339Z,101111.41
2017-09-18T23:13:02.963Z,101112.66
2017-09-18T23:15:30.552Z,101120.12
2017-09-18T23:17:58.126Z,101117.56
2017-09-18T23:20:25.765Z,101120.23
2017-09-18T23:22:53.373Z,101126.70
2017-09-18T23:25:21.001Z,101125.39
2017-09-18T23:27:48.592Z,101122.63
2017-09-18T23:30:16.163Z,101122.17
2017-09-18T23:32:43.770Z,101126.81
2017-09-18T23:35:11.369Z,101122.29
2017-09-18T23:37:38.988Z,101121.28
2017-09-18T23:40:06.567Z,101125.80
2017-09-18T23:42:34.168Z,101119.58
2017-09-18T23:45:01.798Z,101118.27
2017-09-18T23:47:29.679Z,101114.55
2017-09-18T23:49:57.311Z,101114.16
2017-09-18T23:52:24.976Z,101121.50
2017-09-18T23:54:52.584Z,101114.72
2017-09-18T23:57:20.199Z,101114.90
2017-09-18T23:59:47.820Z,101119.33
